Impacts METAR Board
IDs:

KDCA - Washington/National, VA, US

Updated at: 1000 UTC 22 Apr 2018
Potential Impact None Slight Moderate High
Time 21/22Z 21/23Z 22/00Z 22/01Z 22/02Z 22/03Z 22/04Z 22/05Z 22/06Z 22/07Z 22/08Z 22/09Z 22/10Z
Temp60 59 58 58 54 54 53 52 51 51 50 49 49
Dewpt32 31 32 26 35 35 36 40 40 39 40 38 38
Altim30.35 30.35 30.35 30.37 30.38 30.39 30.39 30.39 30.39 30.38 30.38 30.39 30.39
VIS10 10 10 10 10 10 10 10 10 10 10 10 10
CIG250 170 160 250 150 150 150 150 130 130 130 250 250
CoverBKNBKNOVCBKNOVCOVCBKNBKNOVCOVCOVCBKNBKN
FltCatVFRVFRVFRVFRVFRVFRVFRVFRVFRVFRVFRVFRVFR
WX--------------------------
WDir170180170210200180170170180180190190190
WSpd6 7 4 3 3 5 3 4 5 6 6 5 5
WGst-- -- -- -- -- -- -- -- -- -- -- -- --
Raw hourly METARs
KDCA 212152Z 17006KT 10SM FEW120 BKN250 16/00 A3035 RMK AO2 SLP276 T01560000
KDCA 212252Z 18007KT 10SM FEW100 BKN170 BKN250 15/M01 A3035 RMK AO2 SLP276 T01501006
KDCA 212352Z 17004KT 10SM BKN160 OVC250 14/00 A3035 RMK AO2 SLP279 T01440000 10172 20139 53003
KDCA 220052Z 21003KT 10SM SCT160 BKN250 14/M03 A3037 RMK AO2 SLP283 T01441033
KDCA 220152Z 20003KT 10SM OVC150 12/02 A3038 RMK AO2 SLP287 T01220017
KDCA 220252Z 18005KT 10SM OVC150 12/02 A3039 RMK AO2 SLP290 T01220017 51012
KDCA 220352Z 17003KT 10SM BKN150 BKN250 12/02 A3039 RMK AO2 SLP290 T01170022
KDCA 220452Z 17004KT 10SM BKN150 BKN250 11/04 A3039 RMK AO2 SLP292 T01110044 401720056
KDCA 220552Z 18005KT 10SM BKN130 OVC250 11/04 A3039 RMK AO2 SLP291 T01060044 10150 20106 50001
KDCA 220652Z 18006KT 10SM BKN130 OVC250 11/04 A3038 RMK AO2 SLP288 T01060039
KDCA 220752Z 19006KT 10SM BKN130 OVC250 10/04 A3038 RMK AO2 SLP288 T01000044
KDCA 220852Z 19005KT 10SM FEW110 SCT150 BKN250 09/03 A3039 RMK AO2 SLP290 T00940033 55001
KDCA 220952Z 19005KT 10SM FEW120 FEW150 BKN250 09/03 A3039 RMK AO2 SLP291 T00940033



Page loaded:  10:49 UTC  |   03:49 AM Pacific  |   04:49 AM Mountain  |   05:49 AM Central  |   06:49 AM Eastern

 

ADVISORIES

FORECASTS

FORECASTS

OBSERVATIONS

USER TOOLS

ABOUT US